CONNECT WITH FLYNQY PILOT TRAINING

Newquay Five Day Forecast

This Weather Widget is provided by the Met Office

EGHQ TAF and METAR

METAR

EGHQ 270850Z 27004KT 9999 FEW025 08/02 Q1013

TAF

TAF EGHQ 270759Z 2709/2718 36004KT 9999 SCT025 BECMG 2709/2712 29012KT PROB40 TEMPO 2709/2718 8000 SHRA